createdAt,value
2018-12-02T00:01:44.342Z,10.77
2018-12-02T00:04:11.757Z,11.23
2018-12-02T00:06:39.211Z,11.33
2018-12-02T00:09:06.710Z,11.33
2018-12-02T00:11:34.255Z,11.93
2018-12-02T00:14:02.040Z,12.40
2018-12-02T00:16:29.560Z,12.27
2018-12-02T00:18:57.035Z,13.23
2018-12-02T00:21:24.558Z,13.30
2018-12-02T00:23:52.270Z,13.60
2018-12-02T00:26:19.732Z,13.63
2018-12-02T00:28:47.190Z,14.37
2018-12-02T00:31:14.713Z,15.23
2018-12-02T00:33:42.216Z,14.57
2018-12-02T00:36:09.694Z,14.17
2018-12-02T00:38:37.188Z,13.83
2018-12-02T00:41:05.136Z,15.37
2018-12-02T00:43:32.588Z,15.13
2018-12-02T00:46:00.058Z,16.03
2018-12-02T00:48:27.558Z,15.53
2018-12-02T00:50:55.107Z,15.90
2018-12-02T00:53:22.675Z,16.00
2018-12-02T00:56:00.081Z,16.47
2018-12-02T00:58:27.648Z,16.47
2018-12-02T01:00:55.102Z,16.47
2018-12-02T01:03:22.540Z,16.80
2018-12-02T01:05:50.131Z,16.93
2018-12-02T01:08:17.647Z,17.83
2018-12-02T01:10:45.165Z,19.20
2018-12-02T01:13:12.630Z,18.97
2018-12-02T01:15:40.998Z,18.90
2018-12-02T01:18:08.801Z,18.93
2018-12-02T01:20:37.071Z,19.83
2018-12-02T01:23:05.350Z,19.43
2018-12-02T01:25:32.986Z,20.40
2018-12-02T01:28:00.544Z,20.27
2018-12-02T01:30:28.118Z,19.33
2018-12-02T01:32:55.726Z,20.00
2018-12-02T01:35:23.271Z,20.27
2018-12-02T01:37:50.878Z,19.37
2018-12-02T01:40:20.196Z,18.87
2018-12-02T01:42:48.033Z,17.40
2018-12-02T01:45:20.358Z,17.87
2018-12-02T01:47:47.932Z,16.73
2018-12-02T01:50:16.497Z,18.17
2018-12-02T01:52:45.175Z,16.77
2018-12-02T01:55:12.710Z,16.30
2018-12-02T01:57:40.115Z,17.57
2018-12-02T02:00:16.473Z,16.20
2018-12-02T02:02:44.016Z,15.97
2018-12-02T02:05:11.433Z,14.33
2018-12-02T02:07:38.982Z,15.70
2018-12-02T02:10:11.427Z,14.53
2018-12-02T02:12:38.960Z,15.43
2018-12-02T02:15:07.945Z,14.63
2018-12-02T02:17:35.402Z,14.03
2018-12-02T02:20:03.327Z,13.97
2018-12-02T02:22:30.754Z,13.67
2018-12-02T02:24:58.206Z,12.90
2018-12-02T02:27:25.661Z,12.17
2018-12-02T02:29:53.102Z,12.57
2018-12-02T02:32:20.578Z,11.27
2018-12-02T02:34:47.988Z,11.10
2018-12-02T02:37:15.422Z,11.13
2018-12-02T02:39:42.863Z,11.37
2018-12-02T02:42:10.312Z,11.17
2018-12-02T02:44:37.785Z,11.13
2018-12-02T02:47:05.371Z,10.20
2018-12-02T02:49:32.923Z,9.40
2018-12-02T02:52:00.431Z,9.83
2018-12-02T02:54:27.844Z,9.83
2018-12-02T02:56:55.353Z,9.50
2018-12-02T02:59:22.748Z,9.50
2018-12-02T03:01:50.225Z,9.17
2018-12-02T03:04:17.711Z,8.50
2018-12-02T03:06:45.190Z,8.40
2018-12-02T03:09:12.613Z,7.90
2018-12-02T03:11:40.059Z,7.83
2018-12-02T03:14:07.519Z,7.53
2018-12-02T03:16:35.016Z,6.87
2018-12-02T03:19:02.402Z,7.23
2018-12-02T03:21:29.898Z,6.83
2018-12-02T03:23:57.397Z,6.80
2018-12-02T03:26:24.895Z,6.63
2018-12-02T03:28:52.412Z,6.80
2018-12-02T03:31:19.879Z,6.13
2018-12-02T03:33:47.278Z,6.60
2018-12-02T03:36:14.729Z,5.50
2018-12-02T03:38:42.256Z,5.80
2018-12-02T03:41:09.817Z,5.50
2018-12-02T03:43:37.391Z,6.10
2018-12-02T03:46:05.353Z,5.13
2018-12-02T03:48:32.755Z,5.40
2018-12-02T03:51:00.268Z,5.17
2018-12-02T03:53:27.818Z,4.60
2018-12-02T03:55:55.346Z,5.13
2018-12-02T03:58:22.807Z,4.97
2018-12-02T04:00:50.274Z,4.30
2018-12-02T04:03:17.757Z,4.70
2018-12-02T04:05:45.205Z,5.00
2018-12-02T04:08:12.755Z,4.17
2018-12-02T04:10:40.239Z,4.17
2018-12-02T04:13:07.659Z,4.90
2018-12-02T04:15:35.224Z,5.20
2018-12-02T04:18:02.630Z,4.60
2018-12-02T04:20:30.046Z,4.60
2018-12-02T04:22:57.546Z,4.47
2018-12-02T04:25:25.636Z,5.13
2018-12-02T04:27:53.269Z,4.70
2018-12-02T04:30:21.417Z,5.00
2018-12-02T04:32:49.856Z,5.43
2018-12-02T04:35:18.248Z,4.93
2018-12-02T04:37:45.754Z,5.10
2018-12-02T04:40:13.730Z,4.90
2018-12-02T04:42:41.411Z,4.40
2018-12-02T04:45:10.114Z,4.60
2018-12-02T04:47:37.667Z,5.20
2018-12-02T04:50:07.588Z,5.00
2018-12-02T04:52:35.180Z,5.47
2018-12-02T04:55:02.727Z,5.40
2018-12-02T04:57:30.241Z,6.45
2018-12-02T04:59:57.822Z,5.47
2018-12-02T05:02:25.340Z,5.97
2018-12-02T05:04:52.908Z,5.60
2018-12-02T05:07:20.572Z,5.40
2018-12-02T05:09:48.285Z,5.90
2018-12-02T05:12:15.841Z,5.97
2018-12-02T05:14:43.362Z,6.07
2018-12-02T05:17:10.951Z,6.30
2018-12-02T05:19:38.615Z,6.53
2018-12-02T05:22:06.103Z,6.37
2018-12-02T05:24:33.762Z,6.97
2018-12-02T05:27:01.347Z,6.17
2018-12-02T05:29:28.912Z,8.13
2018-12-02T05:31:56.381Z,8.00
2018-12-02T05:34:23.967Z,8.10
2018-12-02T05:36:51.545Z,7.87
2018-12-02T05:39:19.178Z,8.63
2018-12-02T05:41:52.442Z,8.73
2018-12-02T05:44:19.972Z,7.83
2018-12-02T05:46:47.527Z,8.63
2018-12-02T05:49:15.051Z,9.27
2018-12-02T05:51:42.572Z,9.40
2018-12-02T05:54:10.118Z,9.07
2018-12-02T05:56:37.625Z,8.73
2018-12-02T05:59:05.534Z,8.90
2018-12-02T06:01:33.096Z,9.30
2018-12-02T06:04:00.621Z,9.53
2018-12-02T06:06:28.174Z,9.03
2018-12-02T06:08:55.747Z,9.10
2018-12-02T06:11:23.225Z,9.60
2018-12-02T06:13:50.890Z,9.33
2018-12-02T06:16:18.399Z,9.13
2018-12-02T06:18:45.969Z,8.93
2018-12-02T06:21:13.524Z,9.20
2018-12-02T06:28:35.934Z,8.73
2018-12-02T06:31:03.758Z,8.23
2018-12-02T06:33:31.615Z,9.23
2018-12-02T06:35:59.249Z,8.77
2018-12-02T06:38:26.836Z,8.63
2018-12-02T06:40:54.708Z,9.77
2018-12-02T06:43:22.463Z,8.77
2018-12-02T06:45:50.324Z,9.50
2018-12-02T06:48:17.925Z,8.97
2018-12-02T06:50:45.658Z,9.90
2018-12-02T06:53:13.417Z,9.40
2018-12-02T06:55:54.321Z,10.27
2018-12-02T06:58:38.577Z,9.33
2018-12-02T07:01:19.893Z,11.18
2018-12-02T07:03:56.484Z,10.10
2018-12-02T07:06:24.291Z,9.50
2018-12-02T07:08:52.364Z,10.90
2018-12-02T07:11:20.708Z,9.70
2018-12-02T07:13:48.720Z,10.43
2018-12-02T07:16:16.561Z,10.27
2018-12-02T07:18:48.144Z,11.30
2018-12-02T07:21:21.772Z,9.33
2018-12-02T07:23:52.684Z,11.17
2018-12-02T07:40:15.569Z,12.03
2018-12-02T07:42:43.725Z,11.27
2018-12-02T07:45:11.897Z,12.20
2018-12-02T07:47:40.290Z,12.00
2018-12-02T07:50:12.997Z,11.30
2018-12-02T07:52:41.622Z,11.13
2018-12-02T07:55:09.704Z,11.37
2018-12-02T07:57:37.676Z,12.33
2018-12-02T08:00:26.381Z,11.77
2018-12-02T08:02:54.731Z,11.73
2018-12-02T08:05:23.015Z,12.00
2018-12-02T08:07:52.056Z,11.17
2018-12-02T08:10:20.179Z,10.37
2018-12-02T08:12:50.338Z,10.90
2018-12-02T08:15:19.162Z,10.17
2018-12-02T08:17:49.891Z,11.03
2018-12-02T08:20:18.755Z,10.80
2018-12-02T08:22:51.557Z,9.27
2018-12-02T08:25:19.127Z,9.93
2018-12-02T08:27:47.311Z,10.23
2018-12-02T08:30:22.421Z,10.23
2018-12-02T08:32:50.322Z,9.80
2018-12-02T08:35:20.018Z,10.00
2018-12-02T08:37:50.842Z,9.18
2018-12-02T08:40:18.770Z,10.07
2018-12-02T08:42:46.591Z,8.50
2018-12-02T08:45:16.658Z,8.23
2018-12-02T08:47:45.206Z,9.47
2018-12-02T08:50:14.130Z,8.77
2018-12-02T08:52:42.193Z,8.53
2018-12-02T08:55:12.064Z,8.60
2018-12-02T08:57:40.244Z,7.53
2018-12-02T09:00:11.176Z,8.00
2018-12-02T09:02:39.024Z,8.20
2018-12-02T09:05:10.244Z,7.60
2018-12-02T09:07:38.176Z,7.50
2018-12-02T09:10:13.237Z,7.20
2018-12-02T09:12:41.130Z,6.67
2018-12-02T09:15:10.004Z,6.33
2018-12-02T09:17:38.129Z,7.03
2018-12-02T09:20:11.935Z,6.23
2018-12-02T09:22:40.177Z,6.83
2018-12-02T09:25:08.450Z,5.93
2018-12-02T09:27:37.088Z,6.00
2018-12-02T09:30:14.708Z,6.37
2018-12-02T09:32:43.191Z,6.50
2018-12-02T09:35:11.267Z,6.43
2018-12-02T09:37:39.594Z,6.33
2018-12-02T09:40:10.709Z,5.90
2018-12-02T09:42:38.995Z,6.27
2018-12-02T09:45:12.290Z,6.40
2018-12-02T09:47:40.601Z,6.87
2018-12-02T09:50:12.000Z,6.70
2018-12-02T09:52:40.294Z,6.87
2018-12-02T09:55:13.391Z,6.13
2018-12-02T09:57:41.346Z,6.40
2018-12-02T10:00:14.441Z,6.50
2018-12-02T10:02:43.610Z,6.20
2018-12-02T10:05:11.530Z,5.47
2018-12-02T10:07:39.833Z,5.83
2018-12-02T10:10:22.132Z,5.23
2018-12-02T10:13:03.234Z,6.17
2018-12-02T10:15:31.508Z,6.50
2018-12-02T10:18:01.076Z,5.70
2018-12-02T10:20:31.280Z,5.87
2018-12-02T10:23:01.403Z,5.87
2018-12-02T10:25:29.794Z,6.07
2018-12-02T10:27:58.065Z,5.50
2018-12-02T10:30:30.642Z,6.00
2018-12-02T10:32:59.319Z,5.57
2018-12-02T10:35:28.557Z,6.40
2018-12-02T11:33:35.459Z,4.90
2018-12-02T11:36:03.286Z,5.07
2018-12-02T11:38:31.790Z,5.70
2018-12-02T11:41:00.889Z,5.27
2018-12-02T11:43:29.074Z,5.50
2018-12-02T11:45:57.073Z,5.37
2018-12-02T11:48:25.253Z,5.23
2018-12-02T11:50:53.476Z,4.87
2018-12-02T11:53:21.647Z,4.57
2018-12-02T11:55:49.858Z,4.03
2018-12-02T11:58:17.775Z,5.27
2018-12-02T12:00:45.807Z,4.63
2018-12-02T12:03:17.614Z,4.83
2018-12-02T12:05:45.744Z,4.23
2018-12-02T12:08:15.999Z,3.70
2018-12-02T12:10:43.856Z,4.10
2018-12-02T12:13:12.049Z,3.63
2018-12-02T12:15:40.079Z,3.97
2018-12-02T12:18:09.001Z,3.63
2018-12-02T12:20:40.806Z,3.90
2018-12-02T12:23:13.465Z,3.67
2018-12-02T12:25:41.387Z,3.63
2018-12-02T12:28:09.232Z,3.87
2018-12-02T12:30:37.824Z,4.23
2018-12-02T12:33:07.338Z,4.10
2018-12-02T12:35:37.353Z,3.83
2018-12-02T12:38:07.273Z,3.77
2018-12-02T12:40:36.744Z,4.00
2018-12-02T12:43:37.471Z,4.40
2018-12-02T12:46:05.905Z,4.03
2018-12-02T12:48:33.948Z,3.40
2018-12-02T12:51:02.350Z,4.83
2018-12-02T12:53:30.336Z,3.70
2018-12-02T12:56:04.715Z,4.73
2018-12-02T12:58:33.911Z,5.50
2018-12-02T13:01:02.980Z,3.90
2018-12-02T13:03:31.259Z,3.97
2018-12-02T13:05:59.172Z,4.23
2018-12-02T13:08:27.290Z,4.27
2018-12-02T13:10:55.363Z,4.90
2018-12-02T13:13:23.433Z,6.23
2018-12-02T13:15:51.498Z,5.10
2018-12-02T13:18:20.162Z,5.40
2018-12-02T13:20:53.386Z,5.63
2018-12-02T13:23:21.408Z,6.00
2018-12-02T13:25:49.365Z,6.33
2018-12-02T13:28:17.276Z,6.50
2018-12-02T13:30:44.955Z,7.07
2018-12-02T13:33:12.613Z,6.73
2018-12-02T13:35:40.970Z,7.30
2018-12-02T13:38:08.995Z,7.33
2018-12-02T13:40:38.023Z,7.37
2018-12-02T13:43:08.691Z,7.40
2018-12-02T13:45:36.792Z,8.30
2018-12-02T13:48:05.686Z,7.87
2018-12-02T13:50:33.593Z,8.57
2018-12-02T13:53:01.224Z,8.53
2018-12-02T13:55:29.996Z,8.60
2018-12-02T13:57:58.609Z,9.60
2018-12-02T14:00:26.781Z,10.53
2018-12-02T14:02:59.633Z,9.90
2018-12-02T14:05:27.467Z,9.60
2018-12-02T14:07:55.251Z,10.40
2018-12-02T14:10:22.789Z,11.53
2018-12-02T14:12:57.075Z,11.07
2018-12-02T14:15:31.831Z,11.20
2018-12-02T14:18:06.734Z,10.57
2018-12-02T14:20:34.635Z,10.40
2018-12-02T14:23:02.281Z,10.37
2018-12-02T14:25:30.115Z,10.53
2018-12-02T14:27:57.842Z,10.00
2018-12-02T14:30:25.726Z,11.23
2018-12-02T14:32:53.462Z,10.77
2018-12-02T14:35:21.329Z,10.50
2018-12-02T14:37:49.283Z,10.90
2018-12-02T14:40:17.266Z,11.07
2018-12-02T14:42:45.001Z,12.57
2018-12-02T14:45:14.981Z,11.03
2018-12-02T14:47:42.925Z,12.10
2018-12-02T14:50:13.181Z,11.83
2018-12-02T14:52:41.337Z,12.27
2018-12-02T14:55:10.758Z,12.97
2018-12-02T14:57:38.707Z,12.70
2018-12-02T15:00:12.220Z,13.43
2018-12-02T15:02:39.950Z,13.83
2018-12-02T15:05:10.686Z,14.00
2018-12-02T15:07:38.292Z,14.30
2018-12-02T15:10:18.517Z,14.80
2018-12-02T15:12:47.346Z,13.63
2018-12-02T15:15:15.953Z,15.13
2018-12-02T15:17:44.443Z,14.93
2018-12-02T15:20:15.445Z,15.10
2018-12-02T15:22:44.572Z,15.80
2018-12-02T15:25:13.543Z,17.17
2018-12-02T15:27:41.904Z,17.23
2018-12-02T15:30:16.060Z,17.37
2018-12-02T15:32:47.208Z,17.40
2018-12-02T15:35:15.271Z,17.37
2018-12-02T15:37:43.290Z,17.97
2018-12-02T15:40:18.528Z,16.67
2018-12-02T15:42:49.416Z,18.20
2018-12-02T15:45:17.842Z,16.50
2018-12-02T15:47:45.673Z,17.33
2018-12-02T15:50:14.592Z,16.53
2018-12-02T15:52:42.358Z,17.67
2018-12-02T15:55:16.477Z,19.17
2018-12-02T15:57:47.108Z,18.03
2018-12-02T16:00:19.517Z,19.03
2018-12-02T16:02:47.510Z,19.00
2018-12-02T16:05:15.320Z,18.63
2018-12-02T16:07:43.097Z,18.43
2018-12-02T16:10:12.239Z,18.33
2018-12-02T16:12:41.640Z,18.93
2018-12-02T16:15:11.673Z,19.23
2018-12-02T16:17:39.424Z,19.30
2018-12-02T16:20:10.405Z,19.97
2018-12-02T16:22:40.100Z,19.00
2018-12-02T16:25:08.332Z,19.00
2018-12-02T16:27:36.131Z,18.63
2018-12-02T16:30:11.697Z,18.37
2018-12-02T16:32:40.671Z,16.23
2018-12-02T16:35:10.824Z,17.77
2018-12-02T16:37:39.593Z,17.10
2018-12-02T16:40:13.937Z,17.40
2018-12-02T16:42:44.462Z,17.30
2018-12-02T16:45:15.251Z,17.00
2018-12-02T16:47:44.764Z,18.30
2018-12-02T16:50:18.941Z,18.00
2018-12-02T16:52:47.634Z,18.00
2018-12-02T16:55:19.884Z,18.30
2018-12-02T16:58:57.380Z,17.60
2018-12-02T17:15:21.568Z,13.47
2018-12-02T17:17:51.539Z,13.13
2018-12-02T17:20:21.351Z,12.73
2018-12-02T17:22:50.739Z,12.37
2018-12-02T17:25:20.494Z,11.30
2018-12-02T17:27:51.072Z,11.23
2018-12-02T17:30:27.701Z,9.87
2018-12-02T17:32:58.662Z,10.40
2018-12-02T17:35:30.343Z,9.87
2018-12-02T17:38:02.003Z,9.30
2018-12-02T17:40:31.443Z,8.33
2018-12-02T17:43:00.214Z,9.20
2018-12-02T17:45:28.970Z,8.40
2018-12-02T17:47:58.996Z,8.60
2018-12-02T17:50:51.358Z,8.37
2018-12-02T17:53:22.107Z,8.97
2018-12-02T17:55:52.009Z,9.73
2018-12-02T17:58:20.798Z,9.33
2018-12-02T18:00:50.349Z,9.57
2018-12-02T18:03:21.794Z,9.07
2018-12-02T18:05:50.453Z,9.23
2018-12-02T18:08:18.774Z,9.43
2018-12-02T18:10:47.018Z,9.57
2018-12-02T18:13:15.461Z,10.40
2018-12-02T18:15:43.821Z,10.27
2018-12-02T18:18:12.101Z,8.87
2018-12-02T18:20:40.410Z,10.43
2018-12-02T18:23:09.494Z,10.43
2018-12-02T18:25:45.349Z,11.63
2018-12-02T18:28:14.366Z,12.57
2018-12-02T18:30:42.984Z,9.33
2018-12-02T18:33:11.395Z,9.33
2018-12-02T18:36:03.768Z,9.20
2018-12-02T18:38:33.965Z,9.63
2018-12-02T18:41:08.717Z,9.77
2018-12-02T18:43:38.486Z,10.67
2018-12-02T18:46:07.926Z,10.97
2018-12-02T18:48:36.686Z,12.13
2018-12-02T18:51:10.197Z,11.73
2018-12-02T18:53:41.407Z,12.87
2018-12-02T18:56:09.886Z,12.13
2018-12-02T18:58:38.303Z,13.23
2018-12-02T19:01:06.540Z,12.53
2018-12-02T19:03:36.066Z,12.77
2018-12-02T19:06:04.477Z,14.13
2018-12-02T19:08:33.874Z,13.53
2018-12-02T19:11:01.969Z,12.97
2018-12-02T19:13:43.260Z,12.43
2018-12-02T19:16:07.879Z,13.00
2018-12-02T19:18:36.517Z,12.73
2018-12-02T19:21:08.508Z,11.83
2018-12-02T19:23:37.155Z,11.83
2018-12-02T19:26:05.635Z,11.27
2018-12-02T19:28:33.809Z,12.30
2018-12-02T19:31:02.448Z,12.47
2018-12-02T19:33:31.308Z,12.50
2018-12-02T19:36:02.599Z,13.97
2018-12-02T19:38:31.251Z,13.83
2018-12-02T19:40:59.520Z,14.03
2018-12-02T19:43:27.939Z,13.33
2018-12-02T19:45:56.825Z,13.77
2018-12-02T19:48:25.353Z,12.83
2018-12-02T19:50:54.187Z,13.63
2018-12-02T19:53:22.843Z,14.37
2018-12-02T19:55:51.576Z,13.80
2018-12-02T19:58:19.910Z,13.60
2018-12-02T20:00:51.310Z,13.07
2018-12-02T20:03:19.440Z,12.60
2018-12-02T20:05:48.932Z,12.00
2018-12-02T20:08:24.266Z,12.57
2018-12-02T20:10:54.473Z,12.03
2018-12-02T20:13:23.409Z,12.60
2018-12-02T20:15:57.687Z,12.27
2018-12-02T20:18:26.112Z,14.30
2018-12-02T20:20:56.126Z,13.83
2018-12-02T20:23:30.023Z,12.40
2018-12-02T20:25:59.760Z,12.80
2018-12-02T20:28:32.136Z,12.73
2018-12-02T20:31:02.858Z,13.10
2018-12-02T20:33:31.340Z,14.33
2018-12-02T20:35:59.314Z,12.73
2018-12-02T20:38:28.377Z,13.43
2018-12-02T20:40:56.948Z,13.70
2018-12-02T20:43:25.152Z,11.17
2018-12-02T20:45:53.367Z,12.73
2018-12-02T20:48:21.887Z,13.50
2018-12-02T20:53:53.532Z,13.40
2018-12-02T20:56:21.938Z,12.67
2018-12-02T20:58:50.341Z,13.90
2018-12-02T21:01:18.711Z,13.23
2018-12-02T21:03:48.134Z,13.50
2018-12-02T21:06:18.307Z,12.57
2018-12-02T21:08:53.083Z,11.60
2018-12-02T21:11:21.488Z,14.85
2018-12-02T21:13:50.176Z,13.80
2018-12-02T21:16:18.730Z,13.13
2018-12-02T21:18:47.026Z,13.93
2018-12-02T21:21:15.262Z,14.03
2018-12-02T21:23:43.759Z,13.30
2018-12-02T21:26:12.123Z,14.47
2018-12-02T21:28:40.576Z,15.67
2018-12-02T21:31:08.225Z,15.13
2018-12-02T21:33:35.807Z,14.90
2018-12-02T21:36:03.387Z,15.57
2018-12-02T21:38:30.996Z,16.27
2018-12-02T21:40:58.493Z,16.80
2018-12-02T21:43:25.921Z,17.03
2018-12-02T21:45:53.750Z,16.77
2018-12-02T21:48:21.719Z,15.77
2018-12-02T21:50:51.073Z,16.53
2018-12-02T21:53:18.549Z,17.73
2018-12-02T21:55:46.111Z,17.53
2018-12-02T21:58:13.627Z,18.63
2018-12-02T22:00:44.547Z,18.97
2018-12-02T22:03:13.593Z,18.30
2018-12-02T22:05:41.272Z,19.87
2018-12-02T22:08:08.836Z,18.93
2018-12-02T22:10:36.516Z,19.87
2018-12-02T22:13:04.462Z,20.53
2018-12-02T22:15:32.088Z,21.63
2018-12-02T22:17:59.981Z,20.67
2018-12-02T22:20:27.389Z,21.77
2018-12-02T22:22:54.960Z,22.87
2018-12-02T22:25:23.139Z,21.10
2018-12-02T22:27:52.983Z,21.60
2018-12-02T22:30:21.482Z,21.30
2018-12-02T22:32:49.026Z,21.20
2018-12-02T22:35:16.896Z,17.77
2018-12-02T22:37:45.316Z,18.17
2018-12-02T22:40:16.014Z,15.90
2018-12-02T22:42:43.520Z,15.00
2018-12-02T22:45:14.515Z,14.03
2018-12-02T22:47:42.166Z,13.83
2018-12-02T22:50:13.721Z,13.43
2018-12-02T22:52:41.487Z,12.93
2018-12-02T22:55:09.932Z,13.27
2018-12-02T22:57:37.560Z,13.17
2018-12-02T23:00:19.914Z,13.17
2018-12-02T23:02:55.618Z,13.33
2018-12-02T23:05:23.346Z,12.77
2018-12-02T23:07:50.854Z,11.97
2018-12-02T23:10:18.394Z,13.03
2018-12-02T23:12:45.901Z,13.00
2018-12-02T23:15:13.544Z,12.23
2018-12-02T23:17:41.171Z,11.77
2018-12-02T23:20:10.082Z,13.67
2018-12-02T23:22:37.533Z,13.53
2018-12-02T23:25:09.376Z,13.20
2018-12-02T23:27:36.851Z,13.30
2018-12-02T23:30:08.065Z,12.77
2018-12-02T23:32:35.679Z,14.07
2018-12-02T23:35:03.300Z,14.40
2018-12-02T23:37:30.928Z,14.50
2018-12-02T23:39:58.575Z,13.87
2018-12-02T23:42:25.987Z,15.27
2018-12-02T23:44:53.535Z,15.03
2018-12-02T23:47:21.036Z,14.93
2018-12-02T23:49:48.472Z,14.90
2018-12-02T23:52:15.933Z,14.80
2018-12-02T23:54:43.427Z,15.23
2018-12-02T23:57:10.971Z,16.43
2018-12-02T23:59:38.436Z,15.73
